sensor_id;sensor_type;location;lat;lon;timestamp;temperature;humidity
27224;DHT22;14965;50.660;13.226;2022-10-17T00:01:40;13.40;99.90
27224;DHT22;14965;50.660;13.226;2022-10-17T00:04:06;13.50;99.90
27224;DHT22;14965;50.660;13.226;2022-10-17T00:06:32;13.50;99.90
27224;DHT22;14965;50.660;13.226;2022-10-17T00:08:58;13.60;99.90
27224;DHT22;14965;50.660;13.226;2022-10-17T00:11:25;13.60;99.90
27224;DHT22;14965;50.660;13.226;2022-10-17T00:13:53;13.60;99.90
27224;DHT22;14965;50.660;13.226;2022-10-17T00:16:23;13.60;99.90
27224;DHT22;14965;50.660;13.226;2022-10-17T00:18:51;13.50;99.90
27224;DHT22;14965;50.660;13.226;2022-10-17T00:21:18;13.50;99.90
27224;DHT22;14965;50.660;13.226;2022-10-17T00:23:44;13.50;99.90
27224;DHT22;14965;50.660;13.226;2022-10-17T00:26:11;13.50;99.90
27224;DHT22;14965;50.660;13.226;2022-10-17T00:28:39;13.60;99.90
27224;DHT22;14965;50.660;13.226;2022-10-17T00:31:06;13.70;99.90
27224;DHT22;14965;50.660;13.226;2022-10-17T00:33:33;13.70;99.90
27224;DHT22;14965;50.660;13.226;2022-10-17T00:36:04;13.80;99.90
27224;DHT22;14965;50.660;13.226;2022-10-17T00:38:33;13.80;99.90
27224;DHT22;14965;50.660;13.226;2022-10-17T00:40:59;13.80;99.90
27224;DHT22;14965;50.660;13.226;2022-10-17T00:43:26;13.80;99.90
27224;DHT22;14965;50.660;13.226;2022-10-17T00:45:53;13.90;99.90
27224;DHT22;14965;50.660;13.226;2022-10-17T00:48:21;14.00;99.90
27224;DHT22;14965;50.660;13.226;2022-10-17T00:50:50;14.00;99.90
27224;DHT22;14965;50.660;13.226;2022-10-17T00:53:17;14.10;99.90
27224;DHT22;14965;50.660;13.226;2022-10-17T00:55:47;14.20;99.90
27224;DHT22;14965;50.660;13.226;2022-10-17T00:58:15;14.20;99.90
27224;DHT22;14965;50.660;13.226;2022-10-17T01:00:43;14.30;99.90
27224;DHT22;14965;50.660;13.226;2022-10-17T01:03:13;14.30;99.90
27224;DHT22;14965;50.660;13.226;2022-10-17T01:05:40;14.30;99.90
27224;DHT22;14965;50.660;13.226;2022-10-17T01:08:08;14.30;99.90
27224;DHT22;14965;50.660;13.226;2022-10-17T01:10:42;14.30;99.90
27224;DHT22;14965;50.660;13.226;2022-10-17T01:13:23;14.20;99.90
27224;DHT22;14965;50.660;13.226;2022-10-17T01:16:01;14.20;99.90
27224;DHT22;14965;50.660;13.226;2022-10-17T01:18:42;14.10;99.90
27224;DHT22;14965;50.660;13.226;2022-10-17T01:21:26;14.10;99.90
27224;DHT22;14965;50.660;13.226;2022-10-17T01:24:13;14.10;99.90
27224;DHT22;14965;50.660;13.226;2022-10-17T01:27:12;14.10;99.90
27224;DHT22;14965;50.660;13.226;2022-10-17T01:30:22;14.10;99.90
27224;DHT22;14965;50.660;13.226;2022-10-17T01:33:06;14.20;99.90
27224;DHT22;14965;50.660;13.226;2022-10-17T01:35:40;14.20;99.90
27224;DHT22;14965;50.660;13.226;2022-10-17T01:38:18;14.10;99.90
27224;DHT22;14965;50.660;13.226;2022-10-17T01:40:50;14.10;99.90
27224;DHT22;14965;50.660;13.226;2022-10-17T01:43:23;14.10;99.90
27224;DHT22;14965;50.660;13.226;2022-10-17T01:45:59;14.10;99.90
27224;DHT22;14965;50.660;13.226;2022-10-17T01:48:35;14.00;99.90
27224;DHT22;14965;50.660;13.226;2022-10-17T01:51:07;14.10;99.90
27224;DHT22;14965;50.660;13.226;2022-10-17T01:53:40;14.10;99.90
27224;DHT22;14965;50.660;13.226;2022-10-17T01:56:12;14.20;99.90
27224;DHT22;14965;50.660;13.226;2022-10-17T01:58:44;14.10;99.90
27224;DHT22;14965;50.660;13.226;2022-10-17T02:01:14;14.20;99.90
27224;DHT22;14965;50.660;13.226;2022-10-17T02:03:45;14.20;99.90
27224;DHT22;14965;50.660;13.226;2022-10-17T02:06:14;14.20;99.90
27224;DHT22;14965;50.660;13.226;2022-10-17T02:08:42;14.20;99.90
27224;DHT22;14965;50.660;13.226;2022-10-17T02:11:13;14.20;99.90
27224;DHT22;14965;50.660;13.226;2022-10-17T02:14:03;14.10;99.90
27224;DHT22;14965;50.660;13.226;2022-10-17T02:16:49;14.20;99.90
27224;DHT22;14965;50.660;13.226;2022-10-17T02:19:33;14.10;99.90
27224;DHT22;14965;50.660;13.226;2022-10-17T02:22:16;14.20;99.90
27224;DHT22;14965;50.660;13.226;2022-10-17T02:24:56;14.20;99.90
27224;DHT22;14965;50.660;13.226;2022-10-17T02:27:34;14.20;99.90
27224;DHT22;14965;50.660;13.226;2022-10-17T02:30:10;14.20;99.90
27224;DHT22;14965;50.660;13.226;2022-10-17T02:32:44;14.20;99.90
27224;DHT22;14965;50.660;13.226;2022-10-17T02:35:19;14.20;99.90
27224;DHT22;14965;50.660;13.226;2022-10-17T02:37:50;14.30;99.90
27224;DHT22;14965;50.660;13.226;2022-10-17T02:40:20;14.30;99.90
27224;DHT22;14965;50.660;13.226;2022-10-17T02:42:48;14.30;99.90
27224;DHT22;14965;50.660;13.226;2022-10-17T02:45:18;14.20;99.90
27224;DHT22;14965;50.660;13.226;2022-10-17T02:47:50;14.20;99.90
27224;DHT22;14965;50.660;13.226;2022-10-17T02:50:28;14.20;99.90
27224;DHT22;14965;50.660;13.226;2022-10-17T02:53:07;14.20;99.90
27224;DHT22;14965;50.660;13.226;2022-10-17T02:55:41;14.20;99.90
27224;DHT22;14965;50.660;13.226;2022-10-17T02:58:17;14.10;99.90
27224;DHT22;14965;50.660;13.226;2022-10-17T03:00:47;14.10;99.90
27224;DHT22;14965;50.660;13.226;2022-10-17T03:03:21;14.10;99.90
27224;DHT22;14965;50.660;13.226;2022-10-17T03:05:51;14.00;99.90
27224;DHT22;14965;50.660;13.226;2022-10-17T03:08:18;14.00;99.90
27224;DHT22;14965;50.660;13.226;2022-10-17T03:10:45;14.00;99.90
27224;DHT22;14965;50.660;13.226;2022-10-17T03:13:11;14.00;99.90
27224;DHT22;14965;50.660;13.226;2022-10-17T03:15:37;14.00;99.90
27224;DHT22;14965;50.660;13.226;2022-10-17T03:18:03;14.00;99.90
27224;DHT22;14965;50.660;13.226;2022-10-17T03:20:29;14.00;99.90
27224;DHT22;14965;50.660;13.226;2022-10-17T03:22:58;14.00;99.90
27224;DHT22;14965;50.660;13.226;2022-10-17T03:25:24;14.00;99.90
27224;DHT22;14965;50.660;13.226;2022-10-17T03:27:50;13.90;99.90
27224;DHT22;14965;50.660;13.226;2022-10-17T03:30:16;13.90;99.90
27224;DHT22;14965;50.660;13.226;2022-10-17T03:32:42;13.90;99.90
27224;DHT22;14965;50.660;13.226;2022-10-17T03:35:08;13.90;99.90
27224;DHT22;14965;50.660;13.226;2022-10-17T03:37:34;13.90;99.90
27224;DHT22;14965;50.660;13.226;2022-10-17T03:40:02;14.00;99.90
27224;DHT22;14965;50.660;13.226;2022-10-17T03:42:28;14.00;99.90
27224;DHT22;14965;50.660;13.226;2022-10-17T03:44:55;14.00;99.90
27224;DHT22;14965;50.660;13.226;2022-10-17T03:47:21;14.10;99.90
27224;DHT22;14965;50.660;13.226;2022-10-17T03:49:47;14.20;99.90
27224;DHT22;14965;50.660;13.226;2022-10-17T03:52:13;14.10;99.90
27224;DHT22;14965;50.660;13.226;2022-10-17T03:54:40;14.20;99.90
27224;DHT22;14965;50.660;13.226;2022-10-17T03:57:07;14.20;99.90
27224;DHT22;14965;50.660;13.226;2022-10-17T03:59:33;14.20;99.90
27224;DHT22;14965;50.660;13.226;2022-10-17T04:01:59;14.20;99.90
27224;DHT22;14965;50.660;13.226;2022-10-17T04:04:25;14.20;99.90
27224;DHT22;14965;50.660;13.226;2022-10-17T04:06:51;14.30;99.90
27224;DHT22;14965;50.660;13.226;2022-10-17T04:09:17;14.30;99.90
27224;DHT22;14965;50.660;13.226;2022-10-17T04:11:43;14.30;99.90
27224;DHT22;14965;50.660;13.226;2022-10-17T04:14:10;14.30;99.90
27224;DHT22;14965;50.660;13.226;2022-10-17T04:16:37;14.30;99.90
27224;DHT22;14965;50.660;13.226;2022-10-17T04:19:03;14.30;99.90
27224;DHT22;14965;50.660;13.226;2022-10-17T04:21:29;14.30;99.90
27224;DHT22;14965;50.660;13.226;2022-10-17T04:23:56;14.30;99.90
27224;DHT22;14965;50.660;13.226;2022-10-17T04:26:25;14.30;99.90
27224;DHT22;14965;50.660;13.226;2022-10-17T04:28:51;14.20;99.90
27224;DHT22;14965;50.660;13.226;2022-10-17T04:31:19;14.30;99.90
27224;DHT22;14965;50.660;13.226;2022-10-17T04:33:46;14.30;99.90
27224;DHT22;14965;50.660;13.226;2022-10-17T04:36:16;14.20;99.90
27224;DHT22;14965;50.660;13.226;2022-10-17T04:38:43;14.20;99.90
27224;DHT22;14965;50.660;13.226;2022-10-17T04:41:11;14.30;99.90
27224;DHT22;14965;50.660;13.226;2022-10-17T04:43:39;14.20;99.90
27224;DHT22;14965;50.660;13.226;2022-10-17T04:46:07;14.20;99.90
27224;DHT22;14965;50.660;13.226;2022-10-17T04:48:36;14.20;99.90
27224;DHT22;14965;50.660;13.226;2022-10-17T04:51:05;14.20;99.90
27224;DHT22;14965;50.660;13.226;2022-10-17T04:53:34;14.10;99.90
27224;DHT22;14965;50.660;13.226;2022-10-17T04:56:06;14.10;99.90
27224;DHT22;14965;50.660;13.226;2022-10-17T04:58:33;14.00;99.90
27224;DHT22;14965;50.660;13.226;2022-10-17T05:00:59;14.00;99.90
27224;DHT22;14965;50.660;13.226;2022-10-17T05:03:29;13.90;99.90
27224;DHT22;14965;50.660;13.226;2022-10-17T05:05:56;13.90;99.90
27224;DHT22;14965;50.660;13.226;2022-10-17T05:08:22;13.90;99.90
27224;DHT22;14965;50.660;13.226;2022-10-17T05:10:48;13.90;99.90
27224;DHT22;14965;50.660;13.226;2022-10-17T05:13:14;13.90;99.90
27224;DHT22;14965;50.660;13.226;2022-10-17T05:15:40;13.80;99.90
27224;DHT22;14965;50.660;13.226;2022-10-17T05:18:06;13.80;99.90
27224;DHT22;14965;50.660;13.226;2022-10-17T05:20:32;13.70;99.90
27224;DHT22;14965;50.660;13.226;2022-10-17T05:23:00;13.70;99.90
27224;DHT22;14965;50.660;13.226;2022-10-17T05:25:26;13.70;99.90
27224;DHT22;14965;50.660;13.226;2022-10-17T05:27:53;13.70;99.90
27224;DHT22;14965;50.660;13.226;2022-10-17T05:30:19;13.70;99.90
27224;DHT22;14965;50.660;13.226;2022-10-17T05:32:45;13.70;99.90
27224;DHT22;14965;50.660;13.226;2022-10-17T05:35:11;13.70;99.90
27224;DHT22;14965;50.660;13.226;2022-10-17T05:37:37;13.70;99.90
27224;DHT22;14965;50.660;13.226;2022-10-17T05:40:05;13.80;99.90
27224;DHT22;14965;50.660;13.226;2022-10-17T05:42:31;13.80;99.90
27224;DHT22;14965;50.660;13.226;2022-10-17T05:44:57;13.80;99.90
27224;DHT22;14965;50.660;13.226;2022-10-17T05:47:23;13.80;99.90
27224;DHT22;14965;50.660;13.226;2022-10-17T05:49:49;13.90;99.90
27224;DHT22;14965;50.660;13.226;2022-10-17T05:52:15;13.90;99.90
27224;DHT22;14965;50.660;13.226;2022-10-17T05:54:41;14.00;99.90
27224;DHT22;14965;50.660;13.226;2022-10-17T05:57:08;14.00;99.90
27224;DHT22;14965;50.660;13.226;2022-10-17T05:59:34;14.10;99.90
27224;DHT22;14965;50.660;13.226;2022-10-17T06:02:00;14.20;99.90
27224;DHT22;14965;50.660;13.226;2022-10-17T06:04:26;14.20;99.90
27224;DHT22;14965;50.660;13.226;2022-10-17T06:06:52;14.30;99.90
27224;DHT22;14965;50.660;13.226;2022-10-17T06:09:18;14.40;99.90
27224;DHT22;14965;50.660;13.226;2022-10-17T06:11:44;14.50;99.90
27224;DHT22;14965;50.660;13.226;2022-10-17T06:14:12;14.50;99.90
27224;DHT22;14965;50.660;13.226;2022-10-17T06:16:38;14.60;99.90
27224;DHT22;14965;50.660;13.226;2022-10-17T06:19:04;14.60;99.90
27224;DHT22;14965;50.660;13.226;2022-10-17T06:21:30;14.70;99.90
27224;DHT22;14965;50.660;13.226;2022-10-17T06:23:56;14.70;99.90
27224;DHT22;14965;50.660;13.226;2022-10-17T06:26:22;14.80;99.90
27224;DHT22;14965;50.660;13.226;2022-10-17T06:28:48;14.80;99.90
27224;DHT22;14965;50.660;13.226;2022-10-17T06:31:16;14.80;99.90
27224;DHT22;14965;50.660;13.226;2022-10-17T06:33:42;14.80;99.90
27224;DHT22;14965;50.660;13.226;2022-10-17T06:36:11;14.90;99.90
27224;DHT22;14965;50.660;13.226;2022-10-17T06:38:38;14.90;99.90
27224;DHT22;14965;50.660;13.226;2022-10-17T06:41:06;14.90;99.90
27224;DHT22;14965;50.660;13.226;2022-10-17T06:43:34;14.90;99.90
27224;DHT22;14965;50.660;13.226;2022-10-17T06:46:00;14.90;99.90
27224;DHT22;14965;50.660;13.226;2022-10-17T06:48:27;14.90;99.90
27224;DHT22;14965;50.660;13.226;2022-10-17T06:50:53;15.00;99.90
27224;DHT22;14965;50.660;13.226;2022-10-17T06:53:23;15.00;99.90
27224;DHT22;14965;50.660;13.226;2022-10-17T06:55:50;15.00;99.90
27224;DHT22;14965;50.660;13.226;2022-10-17T06:58:16;15.00;99.90
27224;DHT22;14965;50.660;13.226;2022-10-17T07:00:42;15.00;99.90
27224;DHT22;14965;50.660;13.226;2022-10-17T07:03:08;15.10;99.90
27224;DHT22;14965;50.660;13.226;2022-10-17T07:05:35;15.10;99.90
27224;DHT22;14965;50.660;13.226;2022-10-17T07:08:03;15.10;99.90
27224;DHT22;14965;50.660;13.226;2022-10-17T07:10:29;15.20;99.90
27224;DHT22;14965;50.660;13.226;2022-10-17T07:12:55;15.30;99.90
27224;DHT22;14965;50.660;13.226;2022-10-17T07:15:21;15.30;99.90
27224;DHT22;14965;50.660;13.226;2022-10-17T07:17:47;15.40;99.90
27224;DHT22;14965;50.660;13.226;2022-10-17T07:20:14;15.40;99.90
27224;DHT22;14965;50.660;13.226;2022-10-17T07:22:41;15.50;99.90
27224;DHT22;14965;50.660;13.226;2022-10-17T07:25:08;15.60;99.90
27224;DHT22;14965;50.660;13.226;2022-10-17T07:27:34;15.60;99.90
27224;DHT22;14965;50.660;13.226;2022-10-17T07:30:00;15.70;99.90
27224;DHT22;14965;50.660;13.226;2022-10-17T07:32:26;15.70;99.90
27224;DHT22;14965;50.660;13.226;2022-10-17T07:36:25;15.80;99.90
27224;DHT22;14965;50.660;13.226;2022-10-17T07:42:36;16.00;99.90
27224;DHT22;14965;50.660;13.226;2022-10-17T07:45:39;16.20;99.90
27224;DHT22;14965;50.660;13.226;2022-10-17T07:53:39;16.40;99.90
27224;DHT22;14965;50.660;13.226;2022-10-17T07:56:06;16.50;99.90
27224;DHT22;14965;50.660;13.226;2022-10-17T07:58:35;16.60;99.90
27224;DHT22;14965;50.660;13.226;2022-10-17T08:01:02;16.70;99.90
27224;DHT22;14965;50.660;13.226;2022-10-17T08:03:28;16.80;99.90
27224;DHT22;14965;50.660;13.226;2022-10-17T08:05:57;16.90;99.90
27224;DHT22;14965;50.660;13.226;2022-10-17T08:08:23;16.90;99.90
27224;DHT22;14965;50.660;13.226;2022-10-17T08:10:50;17.00;99.90
27224;DHT22;14965;50.660;13.226;2022-10-17T08:13:16;17.10;99.90
27224;DHT22;14965;50.660;13.226;2022-10-17T08:15:43;17.10;99.90
27224;DHT22;14965;50.660;13.226;2022-10-17T08:18:09;17.20;99.90
27224;DHT22;14965;50.660;13.226;2022-10-17T08:20:35;17.20;99.90
27224;DHT22;14965;50.660;13.226;2022-10-17T08:23:01;17.30;99.90
27224;DHT22;14965;50.660;13.226;2022-10-17T08:25:27;17.30;99.90
27224;DHT22;14965;50.660;13.226;2022-10-17T08:27:53;17.40;99.90
27224;DHT22;14965;50.660;13.226;2022-10-17T08:30:19;17.50;99.90
27224;DHT22;14965;50.660;13.226;2022-10-17T08:32:46;17.50;99.90
27224;DHT22;14965;50.660;13.226;2022-10-17T08:35:12;17.60;99.90
27224;DHT22;14965;50.660;13.226;2022-10-17T08:37:38;17.70;99.90
27224;DHT22;14965;50.660;13.226;2022-10-17T08:40:06;17.80;99.90
27224;DHT22;14965;50.660;13.226;2022-10-17T08:42:44;17.90;99.90
27224;DHT22;14965;50.660;13.226;2022-10-17T08:45:52;18.00;99.90
27224;DHT22;14965;50.660;13.226;2022-10-17T08:48:25;18.20;99.90
27224;DHT22;14965;50.660;13.226;2022-10-17T08:50:57;18.20;99.90
27224;DHT22;14965;50.660;13.226;2022-10-17T08:53:29;18.20;99.90
27224;DHT22;14965;50.660;13.226;2022-10-17T08:56:04;18.20;99.90
27224;DHT22;14965;50.660;13.226;2022-10-17T08:58:36;18.20;99.90
27224;DHT22;14965;50.660;13.226;2022-10-17T09:01:05;18.20;99.90
27224;DHT22;14965;50.660;13.226;2022-10-17T09:03:48;18.20;99.90
27224;DHT22;14965;50.660;13.226;2022-10-17T09:06:31;18.30;99.90
27224;DHT22;14965;50.660;13.226;2022-10-17T09:09:09;18.30;99.90
27224;DHT22;14965;50.660;13.226;2022-10-17T09:11:53;18.30;99.90
27224;DHT22;14965;50.660;13.226;2022-10-17T09:14:42;18.50;99.90
27224;DHT22;14965;50.660;13.226;2022-10-17T09:17:31;18.50;99.90
27224;DHT22;14965;50.660;13.226;2022-10-17T09:20:09;18.60;99.90
27224;DHT22;14965;50.660;13.226;2022-10-17T09:22:45;18.60;99.90
27224;DHT22;14965;50.660;13.226;2022-10-17T09:25:16;18.70;99.90
27224;DHT22;14965;50.660;13.226;2022-10-17T09:27:47;18.80;99.90
27224;DHT22;14965;50.660;13.226;2022-10-17T09:30:38;18.80;99.90
27224;DHT22;14965;50.660;13.226;2022-10-17T09:33:10;19.00;99.90
27224;DHT22;14965;50.660;13.226;2022-10-17T09:35:40;19.10;99.90
27224;DHT22;14965;50.660;13.226;2022-10-17T09:38:14;19.20;99.90
27224;DHT22;14965;50.660;13.226;2022-10-17T09:40:41;19.30;99.90
27224;DHT22;14965;50.660;13.226;2022-10-17T09:43:11;19.40;99.90
27224;DHT22;14965;50.660;13.226;2022-10-17T09:45:44;19.50;99.90
27224;DHT22;14965;50.660;13.226;2022-10-17T09:48:22;19.60;99.90
27224;DHT22;14965;50.660;13.226;2022-10-17T09:50:56;19.70;99.90
27224;DHT22;14965;50.660;13.226;2022-10-17T09:53:24;19.80;99.90
27224;DHT22;14965;50.660;13.226;2022-10-17T09:55:57;19.90;99.90
27224;DHT22;14965;50.660;13.226;2022-10-17T09:58:39;19.90;99.90
27224;DHT22;14965;50.660;13.226;2022-10-17T10:01:15;20.00;99.90
27224;DHT22;14965;50.660;13.226;2022-10-17T10:03:46;20.00;99.90
27224;DHT22;14965;50.660;13.226;2022-10-17T10:06:16;20.10;99.90
27224;DHT22;14965;50.660;13.226;2022-10-17T10:08:49;20.20;99.90
27224;DHT22;14965;50.660;13.226;2022-10-17T10:11:17;20.30;99.90
27224;DHT22;14965;50.660;13.226;2022-10-17T10:13:48;20.30;99.90
27224;DHT22;14965;50.660;13.226;2022-10-17T10:16:19;20.40;99.90
27224;DHT22;14965;50.660;13.226;2022-10-17T10:18:47;20.50;99.90
27224;DHT22;14965;50.660;13.226;2022-10-17T10:21:16;20.50;99.90
27224;DHT22;14965;50.660;13.226;2022-10-17T10:23:47;20.60;99.90
27224;DHT22;14965;50.660;13.226;2022-10-17T10:26:33;20.70;99.90
27224;DHT22;14965;50.660;13.226;2022-10-17T10:29:05;20.80;99.90
27224;DHT22;14965;50.660;13.226;2022-10-17T10:31:43;20.90;99.90
27224;DHT22;14965;50.660;13.226;2022-10-17T10:34:19;21.00;99.90
27224;DHT22;14965;50.660;13.226;2022-10-17T10:36:55;21.10;99.90
27224;DHT22;14965;50.660;13.226;2022-10-17T10:39:36;21.20;99.90
27224;DHT22;14965;50.660;13.226;2022-10-17T10:42:17;21.30;99.90
27224;DHT22;14965;50.660;13.226;2022-10-17T10:44:47;21.40;99.90
27224;DHT22;14965;50.660;13.226;2022-10-17T10:47:17;21.40;99.90
27224;DHT22;14965;50.660;13.226;2022-10-17T10:49:47;21.50;99.90
27224;DHT22;14965;50.660;13.226;2022-10-17T10:52:27;21.60;99.90
27224;DHT22;14965;50.660;13.226;2022-10-17T10:55:05;21.60;99.90
27224;DHT22;14965;50.660;13.226;2022-10-17T10:57:43;21.70;99.90
27224;DHT22;14965;50.660;13.226;2022-10-17T11:00:15;21.80;99.90
27224;DHT22;14965;50.660;13.226;2022-10-17T11:02:50;21.80;99.90
27224;DHT22;14965;50.660;13.226;2022-10-17T11:05:36;21.80;99.90
27224;DHT22;14965;50.660;13.226;2022-10-17T11:08:16;21.80;99.90
27224;DHT22;14965;50.660;13.226;2022-10-17T11:10:58;21.90;99.90
27224;DHT22;14965;50.660;13.226;2022-10-17T11:13:49;21.90;99.90
27224;DHT22;14965;50.660;13.226;2022-10-17T11:16:28;22.00;99.90
27224;DHT22;14965;50.660;13.226;2022-10-17T11:19:03;22.10;99.90
27224;DHT22;14965;50.660;13.226;2022-10-17T11:21:40;22.10;99.90
27224;DHT22;14965;50.660;13.226;2022-10-17T11:24:17;22.10;99.90
27224;DHT22;14965;50.660;13.226;2022-10-17T11:26:53;22.10;99.90
27224;DHT22;14965;50.660;13.226;2022-10-17T11:29:27;22.10;99.90
27224;DHT22;14965;50.660;13.226;2022-10-17T11:31:57;22.10;99.90
27224;DHT22;14965;50.660;13.226;2022-10-17T11:34:31;22.00;99.90
27224;DHT22;14965;50.660;13.226;2022-10-17T11:37:04;22.00;99.90
27224;DHT22;14965;50.660;13.226;2022-10-17T11:39:43;22.00;99.90
27224;DHT22;14965;50.660;13.226;2022-10-17T11:42:17;21.90;99.90
27224;DHT22;14965;50.660;13.226;2022-10-17T11:44:47;21.90;99.90
27224;DHT22;14965;50.660;13.226;2022-10-17T11:47:28;21.90;99.90
27224;DHT22;14965;50.660;13.226;2022-10-17T11:50:05;21.80;99.90
27224;DHT22;14965;50.660;13.226;2022-10-17T11:52:45;21.70;99.90
27224;DHT22;14965;50.660;13.226;2022-10-17T11:55:19;21.70;99.90
27224;DHT22;14965;50.660;13.226;2022-10-17T11:57:54;21.60;99.90
27224;DHT22;14965;50.660;13.226;2022-10-17T12:00:36;21.60;99.90
27224;DHT22;14965;50.660;13.226;2022-10-17T12:03:31;21.60;99.90
27224;DHT22;14965;50.660;13.226;2022-10-17T12:06:11;21.60;99.90
27224;DHT22;14965;50.660;13.226;2022-10-17T12:08:45;21.60;99.90
27224;DHT22;14965;50.660;13.226;2022-10-17T12:11:28;21.60;99.90
27224;DHT22;14965;50.660;13.226;2022-10-17T12:14:37;21.60;99.90
27224;DHT22;14965;50.660;13.226;2022-10-17T12:17:28;21.60;99.90
27224;DHT22;14965;50.660;13.226;2022-10-17T12:23:13;21.60;99.90
27224;DHT22;14965;50.660;13.226;2022-10-17T12:25:52;21.70;99.90
27224;DHT22;14965;50.660;13.226;2022-10-17T12:28:30;21.70;99.90
27224;DHT22;14965;50.660;13.226;2022-10-17T12:30:59;21.70;99.90
27224;DHT22;14965;50.660;13.226;2022-10-17T12:33:31;21.70;99.90
27224;DHT22;14965;50.660;13.226;2022-10-17T12:42:30;21.70;99.90
27224;DHT22;14965;50.660;13.226;2022-10-17T12:44:59;21.70;99.90
27224;DHT22;14965;50.660;13.226;2022-10-17T12:47:37;21.60;99.90
27224;DHT22;14965;50.660;13.226;2022-10-17T12:53:30;21.60;99.90
27224;DHT22;14965;50.660;13.226;2022-10-17T12:56:05;21.50;99.90
27224;DHT22;14965;50.660;13.226;2022-10-17T12:58:31;21.50;99.90
27224;DHT22;14965;50.660;13.226;2022-10-17T13:01:00;21.50;99.90
27224;DHT22;14965;50.660;13.226;2022-10-17T13:03:31;21.40;99.90
27224;DHT22;14965;50.660;13.226;2022-10-17T13:06:02;21.40;99.90
27224;DHT22;14965;50.660;13.226;2022-10-17T13:08:33;21.30;99.90
27224;DHT22;14965;50.660;13.226;2022-10-17T13:11:04;21.30;99.90
27224;DHT22;14965;50.660;13.226;2022-10-17T13:13:37;21.20;99.90
27224;DHT22;14965;50.660;13.226;2022-10-17T13:16:08;21.20;99.90
27224;DHT22;14965;50.660;13.226;2022-10-17T13:18:52;21.10;99.90
27224;DHT22;14965;50.660;13.226;2022-10-17T13:21:19;21.00;99.90
27224;DHT22;14965;50.660;13.226;2022-10-17T13:23:45;20.90;99.90
27224;DHT22;14965;50.660;13.226;2022-10-17T13:26:14;20.90;99.90
27224;DHT22;14965;50.660;13.226;2022-10-17T13:28:42;20.80;99.90
27224;DHT22;14965;50.660;13.226;2022-10-17T13:31:27;20.80;99.90
27224;DHT22;14965;50.660;13.226;2022-10-17T13:33:56;20.70;99.90
27224;DHT22;14965;50.660;13.226;2022-10-17T13:36:23;20.60;99.90
27224;DHT22;14965;50.660;13.226;2022-10-17T13:38:51;20.60;99.90
27224;DHT22;14965;50.660;13.226;2022-10-17T13:41:22;20.50;99.90
27224;DHT22;14965;50.660;13.226;2022-10-17T13:43:52;20.40;99.90
27224;DHT22;14965;50.660;13.226;2022-10-17T13:46:25;20.30;99.90
27224;DHT22;14965;50.660;13.226;2022-10-17T13:48:55;20.30;99.90
27224;DHT22;14965;50.660;13.226;2022-10-17T13:51:24;20.10;99.90
27224;DHT22;14965;50.660;13.226;2022-10-17T13:53:52;20.10;99.90
27224;DHT22;14965;50.660;13.226;2022-10-17T13:56:19;20.00;99.90
27224;DHT22;14965;50.660;13.226;2022-10-17T13:58:47;19.90;99.90
27224;DHT22;14965;50.660;13.226;2022-10-17T14:01:15;19.90;99.90
27224;DHT22;14965;50.660;13.226;2022-10-17T14:03:44;19.80;99.90
27224;DHT22;14965;50.660;13.226;2022-10-17T14:06:15;19.70;99.90
27224;DHT22;14965;50.660;13.226;2022-10-17T14:08:55;19.60;99.90
27224;DHT22;14965;50.660;13.226;2022-10-17T14:11:29;19.50;99.90
27224;DHT22;14965;50.660;13.226;2022-10-17T14:13:59;19.40;99.90
27224;DHT22;14965;50.660;13.226;2022-10-17T14:16:33;19.30;99.90
27224;DHT22;14965;50.660;13.226;2022-10-17T14:19:05;19.20;99.90
27224;DHT22;14965;50.660;13.226;2022-10-17T14:21:47;19.10;99.90
27224;DHT22;14965;50.660;13.226;2022-10-17T14:24:25;19.00;99.90
27224;DHT22;14965;50.660;13.226;2022-10-17T14:26:54;18.80;99.90
27224;DHT22;14965;50.660;13.226;2022-10-17T14:29:23;18.70;99.90
27224;DHT22;14965;50.660;13.226;2022-10-17T14:31:57;18.60;99.90
27224;DHT22;14965;50.660;13.226;2022-10-17T14:34:30;18.50;99.90
27224;DHT22;14965;50.660;13.226;2022-10-17T14:36:59;18.40;99.90
27224;DHT22;14965;50.660;13.226;2022-10-17T14:39:26;18.30;99.90
27224;DHT22;14965;50.660;13.226;2022-10-17T14:41:54;18.20;99.90
27224;DHT22;14965;50.660;13.226;2022-10-17T14:44:23;18.10;99.90
27224;DHT22;14965;50.660;13.226;2022-10-17T14:46:54;18.20;99.90
27224;DHT22;14965;50.660;13.226;2022-10-17T14:49:33;18.10;99.90
27224;DHT22;14965;50.660;13.226;2022-10-17T14:52:23;18.00;99.90
27224;DHT22;14965;50.660;13.226;2022-10-17T14:54:51;17.90;99.90
27224;DHT22;14965;50.660;13.226;2022-10-17T14:57:21;17.80;99.90
27224;DHT22;14965;50.660;13.226;2022-10-17T14:59:48;17.80;99.90
27224;DHT22;14965;50.660;13.226;2022-10-17T15:02:14;17.80;99.90
27224;DHT22;14965;50.660;13.226;2022-10-17T15:04:42;17.70;99.90
27224;DHT22;14965;50.660;13.226;2022-10-17T15:07:12;17.70;99.90
27224;DHT22;14965;50.660;13.226;2022-10-17T15:09:39;17.70;99.90
27224;DHT22;14965;50.660;13.226;2022-10-17T15:12:09;17.70;99.90
27224;DHT22;14965;50.660;13.226;2022-10-17T15:14:38;17.70;99.90
27224;DHT22;14965;50.660;13.226;2022-10-17T15:17:07;17.70;99.90
27224;DHT22;14965;50.660;13.226;2022-10-17T15:19:37;17.60;99.90
27224;DHT22;14965;50.660;13.226;2022-10-17T15:22:04;17.50;99.90
27224;DHT22;14965;50.660;13.226;2022-10-17T15:24:30;17.50;99.90
27224;DHT22;14965;50.660;13.226;2022-10-17T15:26:56;17.40;99.90
27224;DHT22;14965;50.660;13.226;2022-10-17T15:29:22;17.40;99.90
27224;DHT22;14965;50.660;13.226;2022-10-17T15:31:48;17.40;99.90
27224;DHT22;14965;50.660;13.226;2022-10-17T15:34:14;17.30;99.90
27224;DHT22;14965;50.660;13.226;2022-10-17T15:36:41;17.20;99.90
27224;DHT22;14965;50.660;13.226;2022-10-17T15:39:15;17.10;99.90
27224;DHT22;14965;50.660;13.226;2022-10-17T15:41:41;17.00;99.90
27224;DHT22;14965;50.660;13.226;2022-10-17T15:44:07;16.80;99.90
27224;DHT22;14965;50.660;13.226;2022-10-17T15:46:34;16.70;99.90
27224;DHT22;14965;50.660;13.226;2022-10-17T15:49:03;16.60;99.90
27224;DHT22;14965;50.660;13.226;2022-10-17T15:51:30;16.50;99.90
27224;DHT22;14965;50.660;13.226;2022-10-17T15:53:56;16.40;99.90
27224;DHT22;14965;50.660;13.226;2022-10-17T15:56:26;16.40;99.90
27224;DHT22;14965;50.660;13.226;2022-10-17T15:59:00;16.30;99.90
27224;DHT22;14965;50.660;13.226;2022-10-17T16:01:29;16.20;99.90
27224;DHT22;14965;50.660;13.226;2022-10-17T16:04:18;16.10;99.90